Time;durP1;ratioP1;P1;durP2;ratioP2;P2;SDS_P1;SDS_P2;PMS_P1;PMS_P2;Temp;Humidity;BMP_temperature;BMP_pressure;BME280_temperature;BME280_humidity;BME280_pressure;Samples;Min_cycle;Max_cycle;Signal;HPM_P1;HPM_P2
2022/05/18 00:02:01;;;;;;;;;;;15.00;99.90;;;;;;5008012;28;19968;-74
2022/05/18 00:04:28;;;;;;;;;;;15.00;99.90;;;;;;5001949;28;19925;-75
2022/05/18 00:06:54;;;;;;;;;;;15.00;99.90;;;;;;5010263;28;19926;-74
2022/05/18 00:09:24;;;;;;;;;;;15.00;99.90;;;;;;4999776;28;19925;-73
2022/05/18 00:11:51;;;;;;;;;;;15.00;99.90;;;;;;5005522;28;19981;-73
2022/05/18 00:14:17;;;;;;;;;;;14.90;99.90;;;;;;5007079;28;19932;-74
2022/05/18 00:16:47;;;;;;;;;;;14.90;99.90;;;;;;4995946;28;19930;-74
2022/05/18 00:19:14;;;;;;;;;;;14.90;99.90;;;;;;5010470;28;20031;-74
2022/05/18 00:21:41;;;;;;;;;;;14.80;99.90;;;;;;5007869;28;19961;-73
2022/05/18 00:24:11;;;;;;;;;;;14.80;99.90;;;;;;5010984;28;19984;-73
2022/05/18 00:26:38;;;;;;;;;;;14.80;99.90;;;;;;5011264;28;19936;-73
2022/05/18 00:29:04;;;;;;;;;;;14.80;99.90;;;;;;5004562;28;20344;-73
2022/05/18 00:31:31;;;;;;;;;;;14.80;99.90;;;;;;5004799;28;19925;-73
2022/05/18 00:34:01;;;;;;;;;;;14.80;99.90;;;;;;5010443;28;19934;-71
2022/05/18 00:36:27;;;;;;;;;;;14.80;99.90;;;;;;5007941;28;20005;-73
2022/05/18 00:38:54;;;;;;;;;;;14.90;99.90;;;;;;5009060;28;19940;-74
2022/05/18 00:41:23;;;;;;;;;;;14.80;99.90;;;;;;5003594;28;19971;-72
2022/05/18 00:43:51;;;;;;;;;;;14.70;99.90;;;;;;5008612;28;20659;-71
2022/05/18 00:46:20;;;;;;;;;;;14.60;99.90;;;;;;5003330;28;19925;-70
2022/05/18 00:48:50;;;;;;;;;;;14.40;99.90;;;;;;5004361;28;19964;-71
2022/05/18 00:51:20;;;;;;;;;;;14.30;99.90;;;;;;5010169;28;19925;-72
2022/05/18 00:53:52;;;;;;;;;;;14.20;99.90;;;;;;5007036;28;19936;-71
2022/05/18 00:56:27;;;;;;;;;;;14.10;99.90;;;;;;5006069;28;19925;-72
2022/05/18 00:59:01;;;;;;;;;;;14.10;99.90;;;;;;5002755;28;19973;-71
2022/05/18 01:01:29;;;;;;;;;;;14.10;99.90;;;;;;5005753;28;20014;-72
2022/05/18 01:03:56;;;;;;;;;;;14.00;99.90;;;;;;5009651;28;19929;-70
2022/05/18 01:06:26;;;;;;;;;;;14.10;99.90;;;;;;5005239;28;19935;-72
2022/05/18 01:09:06;;;;;;;;;;;14.10;99.90;;;;;;5005961;28;19933;-72
2022/05/18 01:11:34;;;;;;;;;;;14.10;99.90;;;;;;5006152;28;20012;-71
2022/05/18 01:14:03;;;;;;;;;;;14.20;99.90;;;;;;5011998;28;20487;-72
2022/05/18 01:16:30;;;;;;;;;;;14.20;99.90;;;;;;5005600;28;19930;-72
2022/05/18 01:18:57;;;;;;;;;;;14.20;99.90;;;;;;5006926;28;20009;-72
2022/05/18 01:21:30;;;;;;;;;;;14.20;99.90;;;;;;5006824;28;19929;-72
2022/05/18 01:24:08;;;;;;;;;;;14.20;99.90;;;;;;5005021;28;19980;-72
2022/05/18 01:26:39;;;;;;;;;;;14.10;99.90;;;;;;5006673;28;19926;-72
2022/05/18 01:29:06;;;;;;;;;;;14.20;99.90;;;;;;5000233;28;19926;-71
2022/05/18 01:31:45;;;;;;;;;;;14.30;99.90;;;;;;5005644;28;19926;-72
2022/05/18 01:34:14;;;;;;;;;;;14.20;99.90;;;;;;5001326;28;19983;-72
2022/05/18 01:36:43;;;;;;;;;;;14.20;99.90;;;;;;5001098;28;19926;-71
2022/05/18 01:39:20;;;;;;;;;;;14.20;99.90;;;;;;5000827;28;19932;-70
2022/05/18 01:42:03;;;;;;;;;;;14.20;99.90;;;;;;5009235;28;19930;-71
2022/05/18 01:44:30;;;;;;;;;;;14.10;99.90;;;;;;5006269;28;19926;-71
2022/05/18 01:46:59;;;;;;;;;;;14.10;99.90;;;;;;5006504;28;19930;-72
2022/05/18 01:49:26;;;;;;;;;;;14.10;99.90;;;;;;5005017;28;20008;-72
2022/05/18 01:51:54;;;;;;;;;;;14.00;99.90;;;;;;5007251;28;20024;-71
2022/05/18 01:54:20;;;;;;;;;;;13.90;99.90;;;;;;5007934;28;20037;-71
2022/05/18 01:56:47;;;;;;;;;;;13.90;99.90;;;;;;5008341;28;20016;-71
2022/05/18 01:59:14;;;;;;;;;;;13.80;99.90;;;;;;5038870;28;19930;-71
2022/05/18 02:01:41;;;;;;;;;;;13.80;99.90;;;;;;5006572;28;19972;-68
2022/05/18 02:04:07;;;;;;;;;;;13.70;99.90;;;;;;5008625;28;19933;-69
2022/05/18 02:06:37;;;;;;;;;;;13.70;99.90;;;;;;5001467;28;19925;-70
2022/05/18 02:09:05;;;;;;;;;;;13.70;99.90;;;;;;5008939;28;20304;-71
2022/05/18 02:11:32;;;;;;;;;;;13.60;99.90;;;;;;5005333;28;19934;-71
2022/05/18 02:13:59;;;;;;;;;;;13.60;99.90;;;;;;5008246;28;19932;-71
2022/05/18 02:16:25;;;;;;;;;;;13.50;99.90;;;;;;5006792;28;19957;-71
2022/05/18 02:18:52;;;;;;;;;;;13.40;99.90;;;;;;5000110;28;20049;-69
2022/05/18 02:21:18;;;;;;;;;;;13.50;99.90;;;;;;5004411;28;19934;-70
2022/05/18 02:23:45;;;;;;;;;;;13.40;99.90;;;;;;5002998;28;20005;-70
2022/05/18 02:26:16;;;;;;;;;;;13.40;99.90;;;;;;5001167;28;19936;-70
2022/05/18 02:28:43;;;;;;;;;;;13.40;99.90;;;;;;5006814;28;19926;-70
2022/05/18 02:31:10;;;;;;;;;;;13.50;99.90;;;;;;5002690;28;21493;-71
2022/05/18 02:33:38;;;;;;;;;;;13.50;99.90;;;;;;5003616;28;19935;-70
2022/05/18 02:36:07;;;;;;;;;;;13.40;99.90;;;;;;5001027;28;19975;-70
2022/05/18 02:38:34;;;;;;;;;;;13.40;99.90;;;;;;5000673;28;19929;-70
2022/05/18 02:41:01;;;;;;;;;;;13.30;99.90;;;;;;5010478;28;19925;-70
2022/05/18 02:43:27;;;;;;;;;;;13.30;99.90;;;;;;5004805;28;19926;-70
2022/05/18 02:46:05;;;;;;;;;;;13.30;99.90;;;;;;5007353;28;19992;-70
2022/05/18 02:48:32;;;;;;;;;;;13.30;99.90;;;;;;5006456;28;19932;-70
2022/05/18 02:50:59;;;;;;;;;;;13.40;99.90;;;;;;5010468;28;19932;-69
2022/05/18 02:53:25;;;;;;;;;;;13.30;99.90;;;;;;5006696;28;19926;-70
2022/05/18 02:56:07;;;;;;;;;;;13.30;99.90;;;;;;5007036;28;20332;-71
2022/05/18 02:58:35;;;;;;;;;;;13.30;99.90;;;;;;5003286;28;19952;-69
2022/05/18 03:01:03;;;;;;;;;;;13.30;99.90;;;;;;5004523;28;20545;-69
2022/05/18 03:03:30;;;;;;;;;;;13.30;99.90;;;;;;5006782;28;19929;-70
2022/05/18 03:05:56;;;;;;;;;;;13.40;99.90;;;;;;5001162;28;20012;-68
2022/05/18 03:08:23;;;;;;;;;;;13.40;99.90;;;;;;5008678;28;19933;-69
2022/05/18 03:10:50;;;;;;;;;;;13.40;99.90;;;;;;5006169;28;19926;-69
2022/05/18 03:13:16;;;;;;;;;;;13.30;99.90;;;;;;5007552;28;20032;-69
2022/05/18 03:15:46;;;;;;;;;;;13.20;99.90;;;;;;5006099;28;19925;-70
2022/05/18 03:18:14;;;;;;;;;;;13.10;99.90;;;;;;5005841;28;20385;-70
2022/05/18 03:23:33;;;;;;;;;;;12.90;99.90;;;;;;5000598;28;19925;-70
2022/05/18 03:26:00;;;;;;;;;;;12.80;99.90;;;;;;5004636;28;19988;-70
2022/05/18 03:28:27;;;;;;;;;;;12.60;99.90;;;;;;5003878;28;19952;-70
2022/05/18 03:30:55;;;;;;;;;;;12.40;99.90;;;;;;5006237;28;20347;-70
2022/05/18 03:33:22;;;;;;;;;;;12.30;99.90;;;;;;5006015;28;19952;-70
2022/05/18 03:35:50;;;;;;;;;;;12.20;99.90;;;;;;5009022;28;19925;-69
2022/05/18 03:38:19;;;;;;;;;;;12.10;99.90;;;;;;5005482;28;19929;-70
2022/05/18 03:40:46;;;;;;;;;;;12.00;99.90;;;;;;5006471;28;19933;-70
2022/05/18 03:43:12;;;;;;;;;;;11.90;99.90;;;;;;5005362;28;19956;-70
2022/05/18 03:45:40;;;;;;;;;;;11.90;99.90;;;;;;5006998;28;20384;-69
2022/05/18 03:48:07;;;;;;;;;;;11.80;99.90;;;;;;5004379;28;19925;-70
2022/05/18 03:50:37;;;;;;;;;;;11.70;99.90;;;;;;5003455;28;19934;-70
2022/05/18 03:53:03;;;;;;;;;;;11.70;99.90;;;;;;5010944;28;19925;-70
2022/05/18 03:55:30;;;;;;;;;;;11.70;99.90;;;;;;5012050;28;19933;-69
2022/05/18 03:57:57;;;;;;;;;;;11.70;99.90;;;;;;5002727;28;19925;-70
2022/05/18 04:00:24;;;;;;;;;;;11.70;99.90;;;;;;5008054;28;19925;-70
2022/05/18 04:02:50;;;;;;;;;;;11.80;99.90;;;;;;4999979;28;20365;-70
2022/05/18 04:05:20;;;;;;;;;;;11.80;99.90;;;;;;5008409;28;19925;-70
2022/05/18 04:07:48;;;;;;;;;;;11.90;99.90;;;;;;5014082;28;19992;-71
2022/05/18 04:10:15;;;;;;;;;;;11.90;99.90;;;;;;5010289;28;19929;-70
2022/05/18 04:12:42;;;;;;;;;;;12.00;99.90;;;;;;5007287;28;19925;-70
2022/05/18 04:15:10;;;;;;;;;;;12.00;99.90;;;;;;5006881;28;19925;-70
2022/05/18 04:17:37;;;;;;;;;;;12.10;99.90;;;;;;4995308;28;19931;-70
2022/05/18 04:20:04;;;;;;;;;;;12.20;99.90;;;;;;5003585;28;19948;-70
2022/05/18 04:22:32;;;;;;;;;;;12.30;99.90;;;;;;5005920;28;19926;-70
2022/05/18 04:25:04;;;;;;;;;;;12.30;99.90;;;;;;5004564;28;19936;-71
2022/05/18 04:27:31;;;;;;;;;;;12.40;99.90;;;;;;5012362;28;19932;-70
2022/05/18 04:30:01;;;;;;;;;;;12.60;99.90;;;;;;5003772;28;19943;-70
2022/05/18 04:32:27;;;;;;;;;;;12.70;99.90;;;;;;5007492;28;19926;-69
2022/05/18 04:34:55;;;;;;;;;;;12.80;99.90;;;;;;4997696;28;20122;-71
2022/05/18 04:37:22;;;;;;;;;;;13.10;99.90;;;;;;5001098;28;19980;-70
2022/05/18 04:39:48;;;;;;;;;;;13.90;99.90;;;;;;5007158;28;21224;-69
2022/05/18 04:42:16;;;;;;;;;;;15.10;99.90;;;;;;5004593;28;19998;-70
2022/05/18 04:44:45;;;;;;;;;;;16.40;99.90;;;;;;5004944;28;19934;-70
2022/05/18 04:47:11;;;;;;;;;;;17.50;99.90;;;;;;5008287;28;19929;-70
2022/05/18 04:49:40;;;;;;;;;;;;;;;;;;5005551;28;19926;-71
2022/05/18 04:52:07;;;;;;;;;;;19.20;99.90;;;;;;5010322;28;19975;-71
2022/05/18 04:54:35;;;;;;;;;;;19.90;99.90;;;;;;5006623;28;19929;-72
2022/05/18 04:57:02;;;;;;;;;;;20.40;99.90;;;;;;5007068;28;20587;-71
2022/05/18 04:59:35;;;;;;;;;;;20.90;99.90;;;;;;5010494;28;19986;-72
2022/05/18 05:02:02;;;;;;;;;;;21.40;99.90;;;;;;5010198;28;19925;-69
2022/05/18 05:04:31;;;;;;;;;;;21.90;99.90;;;;;;4996543;28;19930;-71
2022/05/18 05:07:01;;;;;;;;;;;22.50;99.90;;;;;;5005147;28;20027;-71
2022/05/18 05:09:27;;;;;;;;;;;23.00;99.90;;;;;;5002279;28;19925;-71
2022/05/18 05:11:54;;;;;;;;;;;23.20;99.90;;;;;;5001487;28;19933;-70
2022/05/18 05:14:21;;;;;;;;;;;23.30;99.90;;;;;;5006615;28;20351;-71
2022/05/18 05:16:48;;;;;;;;;;;23.80;99.90;;;;;;5005778;28;20008;-71
2022/05/18 05:19:15;;;;;;;;;;;24.50;99.90;;;;;;5002707;28;20021;-72
2022/05/18 05:21:42;;;;;;;;;;;25.40;99.90;;;;;;5005018;28;19937;-72
2022/05/18 05:24:10;;;;;;;;;;;25.80;99.90;;;;;;5007699;28;19925;-71
2022/05/18 05:26:36;;;;;;;;;;;25.90;99.90;;;;;;5008958;28;20515;-71
2022/05/18 05:29:05;;;;;;;;;;;26.00;99.90;;;;;;5004195;28;21259;-71
2022/05/18 05:31:33;;;;;;;;;;;26.30;99.90;;;;;;5009369;28;19952;-72
2022/05/18 05:34:00;;;;;;;;;;;26.30;99.90;;;;;;5008619;28;19926;-71
2022/05/18 05:36:27;;;;;;;;;;;26.50;99.90;;;;;;5004265;28;19929;-71
2022/05/18 05:38:54;;;;;;;;;;;26.50;99.90;;;;;;5004017;28;19926;-71
2022/05/18 05:41:20;;;;;;;;;;;26.40;99.90;;;;;;5006951;28;19933;-71
2022/05/18 05:43:47;;;;;;;;;;;26.60;99.90;;;;;;4999718;28;20024;-72
2022/05/18 05:46:14;;;;;;;;;;;26.40;99.90;;;;;;5005791;28;20372;-70
2022/05/18 05:48:44;;;;;;;;;;;26.10;99.90;;;;;;5001813;28;20020;-71
2022/05/18 05:51:13;;;;;;;;;;;25.80;99.90;;;;;;5003001;28;19951;-69
2022/05/18 05:53:43;;;;;;;;;;;25.80;99.90;;;;;;5003584;28;20356;-70
2022/05/18 05:56:10;;;;;;;;;;;25.60;99.90;;;;;;5009546;28;20273;-70
2022/05/18 05:58:41;;;;;;;;;;;25.90;99.90;;;;;;5005285;28;19965;-71
2022/05/18 06:01:09;;;;;;;;;;;26.40;99.90;;;;;;5002034;28;19933;-70
2022/05/18 06:03:36;;;;;;;;;;;26.50;99.90;;;;;;5008491;28;19971;-70
2022/05/18 06:06:03;;;;;;;;;;;26.50;99.90;;;;;;4999779;28;19989;-71
2022/05/18 06:08:30;;;;;;;;;;;26.30;99.90;;;;;;5001434;28;19926;-69
2022/05/18 06:10:58;;;;;;;;;;;26.70;99.90;;;;;;5006601;28;20167;-70
2022/05/18 06:13:25;;;;;;;;;;;27.10;99.90;;;;;;5001918;28;19961;-70
2022/05/18 06:15:52;;;;;;;;;;;27.30;99.90;;;;;;5002888;28;19957;-70
2022/05/18 06:18:18;;;;;;;;;;;27.20;99.90;;;;;;5009133;28;20332;-70
2022/05/18 06:20:47;;;;;;;;;;;27.20;99.90;;;;;;5004428;28;20008;-70
2022/05/18 06:23:15;;;;;;;;;;;26.90;99.90;;;;;;5002551;28;20359;-70
2022/05/18 06:25:42;;;;;;;;;;;27.30;99.90;;;;;;4987620;28;20063;-70
2022/05/18 06:28:09;;;;;;;;;;;27.50;99.90;;;;;;4999750;28;20384;-70
2022/05/18 06:30:41;;;;;;;;;;;28.00;99.90;;;;;;5005660;28;19933;-71
2022/05/18 06:33:10;;;;;;;;;;;28.80;99.90;;;;;;5002746;28;19999;-68
2022/05/18 06:35:36;;;;;;;;;;;29.30;99.90;;;;;;5003452;28;20423;-69
2022/05/18 06:38:13;;;;;;;;;;;29.60;99.90;;;;;;4992827;28;19934;-70
2022/05/18 06:43:25;;;;;;;;;;;30.30;99.90;;;;;;5001884;28;20409;-68
2022/05/18 06:45:53;;;;;;;;;;;30.20;99.90;;;;;;5016770;28;19925;-69
2022/05/18 06:48:19;;;;;;;;;;;30.30;99.90;;;;;;5007246;28;19925;-69
2022/05/18 06:51:06;;;;;;;;;;;30.60;99.90;;;;;;5006666;28;19941;-68
2022/05/18 06:53:33;;;;;;;;;;;30.50;99.90;;;;;;5010772;28;20364;-69
2022/05/18 06:56:03;;;;;;;;;;;30.50;99.90;;;;;;5007000;28;19936;-69
2022/05/18 06:58:31;;;;;;;;;;;30.90;99.90;;;;;;5024557;28;19933;-70
2022/05/18 07:01:01;;;;;;;;;;;31.10;99.90;;;;;;5001055;28;19925;-69
2022/05/18 07:03:30;;;;;;;;;;;31.60;99.90;;;;;;5010239;28;20342;-69
2022/05/18 07:05:57;;;;;;;;;;;31.80;99.90;;;;;;5011346;28;19926;-70
2022/05/18 07:08:23;;;;;;;;;;;31.90;99.90;;;;;;5006352;28;20603;-70
2022/05/18 07:10:50;;;;;;;;;;;31.60;99.90;;;;;;5012358;28;19952;-69
2022/05/18 07:13:18;;;;;;;;;;;31.30;99.90;;;;;;5009762;28;19984;-70
2022/05/18 07:15:45;;;;;;;;;;;31.30;99.90;;;;;;5036746;28;20415;-70
2022/05/18 07:18:14;;;;;;;;;;;31.40;99.90;;;;;;5004544;28;19926;-67
2022/05/18 07:20:41;;;;;;;;;;;31.60;99.90;;;;;;5001364;28;19932;-70
2022/05/18 07:23:08;;;;;;;;;;;31.50;99.90;;;;;;5007636;28;20495;-69
2022/05/18 07:25:35;;;;;;;;;;;31.80;99.90;;;;;;5005646;28;19929;-69
2022/05/18 07:28:02;;;;;;;;;;;32.40;99.90;;;;;;5007561;28;20012;-69
2022/05/18 07:30:46;;;;;;;;;;;32.50;99.90;;;;;;5009590;28;19979;-69
2022/05/18 07:33:16;;;;;;;;;;;32.50;99.90;;;;;;5008103;28;20575;-67
2022/05/18 07:35:49;;;;;;;;;;;32.70;99.90;;;;;;5010807;28;20353;-69
2022/05/18 07:38:17;;;;;;;;;;;32.10;99.90;;;;;;5006929;28;19929;-68
2022/05/18 07:41:04;;;;;;;;;;;32.40;99.90;;;;;;5006462;28;19926;-68
2022/05/18 07:43:31;;;;;;;;;;;32.50;99.50;;;;;;5007379;28;20336;-70
2022/05/18 07:45:57;;;;;;;;;;;32.80;99.20;;;;;;5004900;28;19926;-63
2022/05/18 07:48:25;;;;;;;;;;;33.10;99.10;;;;;;5006973;28;20360;-67
2022/05/18 07:50:52;;;;;;;;;;;33.10;98.10;;;;;;5004654;28;19932;-66
2022/05/18 07:53:19;;;;;;;;;;;32.80;97.50;;;;;;5009439;28;20000;-66
2022/05/18 07:55:45;;;;;;;;;;;32.70;97.60;;;;;;5007950;28;19968;-66
2022/05/18 07:58:14;;;;;;;;;;;32.90;97.90;;;;;;5003841;28;19926;-65
2022/05/18 08:00:41;;;;;;;;;;;32.60;98.00;;;;;;5022438;28;19930;-66
2022/05/18 08:03:09;;;;;;;;;;;32.20;98.10;;;;;;5004603;28;19940;-67
2022/05/18 08:05:37;;;;;;;;;;;32.00;98.70;;;;;;5007208;28;19944;-67
2022/05/18 08:08:08;;;;;;;;;;;31.40;98.50;;;;;;5006585;28;19933;-65
2022/05/18 08:16:05;;;;;;;;;;;32.50;98.10;;;;;;5002963;28;20384;-66
2022/05/18 08:18:32;;;;;;;;;;;32.50;97.50;;;;;;5008541;28;19925;-68
2022/05/18 08:20:58;;;;;;;;;;;32.10;97.30;;;;;;5010675;28;19932;-67
2022/05/18 08:23:25;;;;;;;;;;;31.20;97.30;;;;;;5008454;28;19929;-67
2022/05/18 08:25:56;;;;;;;;;;;31.10;98.10;;;;;;5006818;28;20352;-66
2022/05/18 08:28:23;;;;;;;;;;;32.00;97.80;;;;;;5007163;28;19932;-67
2022/05/18 08:30:50;;;;;;;;;;;31.70;97.50;;;;;;5003490;28;19936;-66
2022/05/18 08:33:17;;;;;;;;;;;31.50;97.70;;;;;;5005610;28;20308;-65
2022/05/18 08:35:44;;;;;;;;;;;31.20;97.30;;;;;;4996961;28;19925;-69
2022/05/18 08:38:11;;;;;;;;;;;31.90;98.00;;;;;;5005335;28;20004;-67
2022/05/18 08:40:43;;;;;;;;;;;31.90;96.80;;;;;;5003160;28;19933;-70
2022/05/18 08:43:12;;;;;;;;;;;32.20;97.00;;;;;;5007131;28;19932;-66
2022/05/18 08:45:46;;;;;;;;;;;32.40;97.40;;;;;;5008913;28;20335;-67
2022/05/18 08:48:25;;;;;;;;;;;32.10;96.10;;;;;;5010351;28;20399;-65
2022/05/18 08:50:52;;;;;;;;;;;31.50;96.20;;;;;;5006313;28;19925;-70
2022/05/18 08:53:22;;;;;;;;;;;31.00;96.40;;;;;;4999273;28;19925;-66
2022/05/18 08:55:56;;;;;;;;;;;31.50;96.50;;;;;;5006903;28;19929;-72
2022/05/18 08:58:28;;;;;;;;;;;31.10;96.40;;;;;;5003067;28;20511;-69
2022/05/18 09:00:59;;;;;;;;;;;29.80;96.50;;;;;;5002248;28;20049;-65
2022/05/18 09:03:35;;;;;;;;;;;29.00;97.70;;;;;;4996893;28;19934;-68
2022/05/18 09:06:12;;;;;;;;;;;28.70;98.30;;;;;;4999172;28;20638;-71
2022/05/18 09:08:41;;;;;;;;;;;28.80;98.20;;;;;;5005579;28;20016;-69
2022/05/18 09:11:15;;;;;;;;;;;28.90;98.40;;;;;;5003383;28;19926;-72
2022/05/18 09:13:42;;;;;;;;;;;29.20;98.40;;;;;;5003703;28;20032;-68
2022/05/18 09:16:13;;;;;;;;;;;29.10;98.40;;;;;;5003030;28;20044;-69
2022/05/18 09:18:46;;;;;;;;;;;28.90;98.00;;;;;;5007324;28;19929;-73
2022/05/18 09:21:25;;;;;;;;;;;28.80;97.90;;;;;;5003513;28;19933;-70
2022/05/18 09:24:01;;;;;;;;;;;28.60;98.80;;;;;;4999593;28;19932;-66
2022/05/18 09:26:47;;;;;;;;;;;28.50;98.70;;;;;;5013916;28;20462;-69
2022/05/18 09:29:33;;;;;;;;;;;29.10;98.70;;;;;;5004204;28;19925;-69
2022/05/18 09:32:17;;;;;;;;;;;29.60;98.00;;;;;;5009286;28;19947;-69
2022/05/18 09:34:56;;;;;;;;;;;30.30;97.20;;;;;;5002661;28;19925;-67
2022/05/18 09:37:29;;;;;;;;;;;30.20;97.30;;;;;;5007713;28;19984;-67
2022/05/18 09:40:01;;;;;;;;;;;29.90;97.50;;;;;;5009320;28;19929;-68
2022/05/18 09:42:30;;;;;;;;;;;30.40;97.90;;;;;;5006899;28;19952;-69
2022/05/18 09:45:08;;;;;;;;;;;31.20;97.20;;;;;;5006852;28;19925;-68
2022/05/18 09:47:40;;;;;;;;;;;31.50;97.10;;;;;;4999192;28;19929;-67
2022/05/18 09:50:08;;;;;;;;;;;31.60;96.10;;;;;;5006613;28;20025;-65
2022/05/18 09:52:37;;;;;;;;;;;31.80;95.60;;;;;;5006219;28;19960;-68
2022/05/18 09:55:05;;;;;;;;;;;32.10;95.70;;;;;;5002376;28;19926;-68
2022/05/18 09:57:34;;;;;;;;;;;33.10;95.40;;;;;;4999113;28;19926;-68
2022/05/18 10:00:11;;;;;;;;;;;33.10;94.50;;;;;;5005331;28;19933;-66
2022/05/18 10:08:15;;;;;;;;;;;32.40;93.90;;;;;;4998246;28;19933;-67
2022/05/18 10:10:42;;;;;;;;;;;32.40;94.70;;;;;;4999133;28;19934;-68
2022/05/18 10:13:10;;;;;;;;;;;31.90;93.70;;;;;;4999342;28;20578;-65
2022/05/18 10:16:14;;;;;;;;;;;31.10;94.50;;;;;;5003784;28;19933;-67
2022/05/18 10:18:43;;;;;;;;;;;31.00;94.40;;;;;;5010385;28;19957;-67
2022/05/18 10:21:20;;;;;;;;;;;31.40;94.80;;;;;;4999759;28;19933;-68
2022/05/18 10:23:57;;;;;;;;;;;32.20;94.10;;;;;;5004659;28;19937;-68
2022/05/18 10:26:30;;;;;;;;;;;33.00;92.60;;;;;;5006718;28;20008;-66
2022/05/18 10:29:17;;;;;;;;;;;32.70;93.30;;;;;;5003369;28;19933;-66
2022/05/18 10:31:46;;;;;;;;;;;32.50;93.90;;;;;;4996727;28;19960;-69
2022/05/18 10:34:26;;;;;;;;;;;32.20;94.20;;;;;;5001202;28;19925;-66
2022/05/18 10:36:54;;;;;;;;;;;32.20;94.10;;;;;;5000310;28;19926;-69
2022/05/18 10:39:36;;;;;;;;;;;32.80;93.40;;;;;;5004514;28;20023;-68
2022/05/18 10:42:23;;;;;;;;;;;33.10;93.90;;;;;;5005713;28;19930;-68
2022/05/18 10:44:51;;;;;;;;;;;33.70;93.20;;;;;;4996160;28;19929;-68
2022/05/18 10:47:26;;;;;;;;;;;33.80;92.90;;;;;;5005208;28;19929;-69
2022/05/18 10:50:09;;;;;;;;;;;33.30;93.40;;;;;;5001473;28;20333;-70
2022/05/18 10:52:36;;;;;;;;;;;33.40;93.30;;;;;;5001585;28;20141;-68
2022/05/18 10:55:09;;;;;;;;;;;33.20;93.30;;;;;;5003574;28;19927;-68
2022/05/18 10:57:38;;;;;;;;;;;34.00;94.30;;;;;;5001669;28;20389;-67
2022/05/18 11:00:08;;;;;;;;;;;33.60;93.30;;;;;;5004680;28;19925;-67
2022/05/18 11:02:55;;;;;;;;;;;33.40;93.50;;;;;;5018394;28;19926;-68
2022/05/18 11:05:28;;;;;;;;;;;33.40;92.90;;;;;;5004445;28;19929;-66
2022/05/18 11:07:54;;;;;;;;;;;33.90;92.60;;;;;;4996493;28;19932;-68
2022/05/18 11:10:30;;;;;;;;;;;33.80;93.50;;;;;;5001258;28;19925;-67
2022/05/18 11:13:02;;;;;;;;;;;33.00;92.80;;;;;;4996880;28;19930;-66
2022/05/18 11:15:28;;;;;;;;;;;32.60;94.00;;;;;;5006934;28;19929;-68
2022/05/18 11:18:13;;;;;;;;;;;32.10;93.40;;;;;;4995601;28;19932;-68
2022/05/18 11:20:52;;;;;;;;;;;31.90;93.80;;;;;;5007858;28;19936;-70
2022/05/18 11:23:19;;;;;;;;;;;31.60;93.60;;;;;;4990075;28;20356;-69
2022/05/18 11:25:55;;;;;;;;;;;31.60;93.70;;;;;;5004980;28;19956;-66
2022/05/18 11:28:50;;;;;;;;;;;31.90;93.70;;;;;;5002401;28;19926;-68
2022/05/18 11:31:39;;;;;;;;;;;32.40;93.70;;;;;;5003192;28;19925;-67
2022/05/18 11:34:08;;;;;;;;;;;32.20;94.10;;;;;;5006476;28;20293;-67
2022/05/18 11:36:49;;;;;;;;;;;32.10;92.80;;;;;;5031416;28;19944;-67
2022/05/18 11:39:22;;;;;;;;;;;32.40;93.10;;;;;;4999877;28;19929;-69
2022/05/18 11:42:04;;;;;;;;;;;32.40;92.80;;;;;;5003939;28;19929;-69
2022/05/18 11:44:36;;;;;;;;;;;33.10;92.40;;;;;;4986364;28;20005;-68
2022/05/18 11:47:18;;;;;;;;;;;33.70;92.20;;;;;;5004139;28;20016;-70
2022/05/18 11:49:44;;;;;;;;;;;34.20;91.90;;;;;;5004188;28;19926;-68
2022/05/18 11:52:44;;;;;;;;;;;34.80;90.10;;;;;;5007390;28;19926;-68
2022/05/18 11:55:16;;;;;;;;;;;34.40;90.40;;;;;;4974722;28;20012;-67
2022/05/18 11:57:55;;;;;;;;;;;33.70;90.50;;;;;;4999736;28;20025;-68
2022/05/18 12:03:19;;;;;;;;;;;32.80;91.70;;;;;;4997362;28;19936;-66
2022/05/18 12:06:04;;;;;;;;;;;32.60;90.90;;;;;;5010949;28;19936;-67
2022/05/18 12:09:03;;;;;;;;;;;32.70;91.60;;;;;;5007608;28;20004;-67
2022/05/18 12:11:35;;;;;;;;;;;32.90;91.10;;;;;;4982504;28;20508;-65
2022/05/18 12:14:02;;;;;;;;;;;33.20;90.80;;;;;;4984791;28;19972;-67
2022/05/18 12:16:43;;;;;;;;;;;33.30;92.40;;;;;;4969677;28;20331;-69
2022/05/18 12:19:14;;;;;;;;;;;33.40;90.10;;;;;;4985503;28;20557;-65
2022/05/18 12:21:43;;;;;;;;;;;32.90;90.00;;;;;;4973247;28;19936;-67
2022/05/18 12:24:11;;;;;;;;;;;32.90;90.70;;;;;;4983272;28;19936;-66
2022/05/18 12:26:40;;;;;;;;;;;33.30;90.40;;;;;;4983041;28;19926;-68
2022/05/18 12:29:07;;;;;;;;;;;33.30;90.30;;;;;;4985921;28;20444;-67
2022/05/18 12:31:34;;;;;;;;;;;33.20;90.40;;;;;;4988807;28;19936;-68
2022/05/18 12:34:27;;;;;;;;;;;33.30;90.40;;;;;;4988021;28;20328;-66
2022/05/18 12:36:57;;;;;;;;;;;33.30;90.60;;;;;;4944967;28;19926;-68
2022/05/18 12:39:33;;;;;;;;;;;33.60;90.30;;;;;;4944618;28;19934;-67
2022/05/18 12:42:01;;;;;;;;;;;33.60;90.10;;;;;;4944897;28;19935;-69
2022/05/18 12:44:37;;;;;;;;;;;33.20;89.40;;;;;;4947729;28;19965;-68
2022/05/18 12:47:31;;;;;;;;;;;32.60;89.40;;;;;;4939771;28;19985;-65
2022/05/18 12:50:03;;;;;;;;;;;32.20;90.00;;;;;;4933466;29;20005;-59
2022/05/18 12:52:30;;;;;;;;;;;32.30;90.00;;;;;;4937949;29;19927;-61
2022/05/18 12:55:01;;;;;;;;;;;32.60;91.00;;;;;;4940434;29;20560;-66
2022/05/18 12:57:40;;;;;;;;;;;33.00;89.50;;;;;;4953745;28;19990;-65
2022/05/18 13:00:27;;;;;;;;;;;33.30;90.60;;;;;;4944497;28;19955;-66
2022/05/18 13:02:56;;;;;;;;;;;33.40;90.40;;;;;;4938874;29;19926;-66
2022/05/18 13:05:25;;;;;;;;;;;33.70;89.50;;;;;;4938807;28;19927;-64
2022/05/18 13:08:11;;;;;;;;;;;33.60;89.60;;;;;;4942914;28;20052;-65
2022/05/18 13:10:38;;;;;;;;;;;33.70;88.20;;;;;;4942668;29;19930;-65
2022/05/18 13:13:17;;;;;;;;;;;33.80;90.00;;;;;;4958968;28;20021;-66
2022/05/18 13:15:52;;;;;;;;;;;33.80;90.00;;;;;;5007908;28;19935;-68
2022/05/18 13:18:25;;;;;;;;;;;33.20;89.10;;;;;;5006946;28;19932;-66
2022/05/18 13:20:55;;;;;;;;;;;33.20;90.30;;;;;;5010134;28;19925;-65
2022/05/18 13:23:25;;;;;;;;;;;33.40;89.50;;;;;;5005728;28;19930;-67
2022/05/18 13:25:53;;;;;;;;;;;33.30;89.40;;;;;;5009044;28;19925;-64
2022/05/18 13:28:23;;;;;;;;;;;32.90;89.40;;;;;;5007789;28;20007;-64
2022/05/18 13:30:51;;;;;;;;;;;33.00;89.60;;;;;;5004715;28;20359;-67
2022/05/18 13:33:58;;;;;;;;;;;32.80;88.90;;;;;;5008682;28;20047;-67
2022/05/18 13:36:36;;;;;;;;;;;33.00;89.20;;;;;;5008540;28;19933;-66
2022/05/18 13:39:07;;;;;;;;;;;33.60;88.50;;;;;;5005760;28;19940;-66
2022/05/18 13:41:35;;;;;;;;;;;33.90;87.00;;;;;;5001585;28;20024;-67
2022/05/18 13:44:05;;;;;;;;;;;33.90;86.80;;;;;;5002124;28;19932;-66
2022/05/18 13:46:34;;;;;;;;;;;34.30;86.60;;;;;;5004590;28;19926;-66
2022/05/18 13:49:05;;;;;;;;;;;34.50;85.40;;;;;;5006791;28;19988;-66
2022/05/18 13:51:34;;;;;;;;;;;35.20;88.50;;;;;;5006694;28;19925;-66
2022/05/18 13:54:05;;;;;;;;;;;35.50;84.80;;;;;;5003227;28;19934;-66
2022/05/18 13:56:35;;;;;;;;;;;35.80;85.50;;;;;;5009010;28;19935;-67
2022/05/18 13:59:05;;;;;;;;;;;35.20;85.20;;;;;;5006638;28;20016;-67
2022/05/18 14:01:33;;;;;;;;;;;34.30;86.90;;;;;;5004050;28;19929;-67
2022/05/18 14:04:00;;;;;;;;;;;34.20;88.00;;;;;;5008886;28;19925;-68
2022/05/18 14:06:27;;;;;;;;;;;34.20;86.60;;;;;;5009001;28;19930;-64
2022/05/18 14:09:01;;;;;;;;;;;34.00;85.80;;;;;;5005976;28;19929;-65
2022/05/18 14:11:28;;;;;;;;;;;35.00;85.30;;;;;;5005969;28;19931;-64
2022/05/18 14:13:57;;;;;;;;;;;35.40;85.20;;;;;;5002456;28;19934;-65
2022/05/18 14:16:49;;;;;;;;;;;35.40;85.10;;;;;;5004781;28;19925;-65
2022/05/18 14:19:21;;;;;;;;;;;35.80;83.80;;;;;;5001217;28;19947;-66
2022/05/18 14:22:14;;;;;;;;;;;36.00;84.50;;;;;;5015651;28;19952;-64
2022/05/18 14:24:44;;;;;;;;;;;36.20;84.40;;;;;;5008814;28;20423;-66
2022/05/18 14:27:13;;;;;;;;;;;36.00;83.40;;;;;;4992243;28;20004;-68
2022/05/18 14:29:47;;;;;;;;;;;36.00;83.70;;;;;;5003341;28;20012;-65
2022/05/18 14:32:17;;;;;;;;;;;35.50;83.80;;;;;;5008375;28;19925;-64
2022/05/18 14:34:51;;;;;;;;;;;36.20;84.70;;;;;;5006592;28;19969;-64
2022/05/18 14:37:26;;;;;;;;;;;36.60;82.10;;;;;;5003334;28;19952;-64
2022/05/18 14:39:54;;;;;;;;;;;36.80;81.70;;;;;;5004386;28;19932;-65
2022/05/18 14:42:22;;;;;;;;;;;37.10;81.00;;;;;;5005247;28;19934;-66
2022/05/18 14:44:50;;;;;;;;;;;37.20;80.90;;;;;;5008766;28;19968;-65
2022/05/18 14:47:25;;;;;;;;;;;37.90;81.10;;;;;;5006000;28;19933;-66
2022/05/18 14:50:03;;;;;;;;;;;38.30;79.40;;;;;;5005949;28;19932;-66
2022/05/18 14:52:33;;;;;;;;;;;38.80;80.30;;;;;;5007217;28;19925;-65
2022/05/18 14:55:11;;;;;;;;;;;39.10;80.50;;;;;;5004652;28;20012;-63
2022/05/18 14:57:38;;;;;;;;;;;38.60;80.40;;;;;;5003230;28;19952;-64
2022/05/18 15:00:12;;;;;;;;;;;37.60;79.30;;;;;;5002533;28;19944;-65